Time;durP1;ratioP1;P1;durP2;ratioP2;P2;SDS_P1;SDS_P2;PMS_P1;PMS_P2;Temp;Humidity;BMP_temperature;BMP_pressure;BME280_temperature;BME280_humidity;BME280_pressure;Samples;Min_cycle;Max_cycle;Signal;HPM_P1;HPM_P2
2022/06/19 00:01:15;;;;;;;10.13;7.65;;;14.60;73.30;;;;;;5037776;27;96036;-41
2022/06/19 00:03:50;;;;;;;8.13;7.20;;;14.60;73.10;;;;;;5036427;27;95578;-40
2022/06/19 00:06:23;;;;;;;7.93;6.65;;;14.70;73.20;;;;;;5043882;27;95930;-41
2022/06/19 00:08:53;;;;;;;8.25;7.40;;;14.70;73.20;;;;;;5040463;27;96547;-41
2022/06/19 00:11:24;;;;;;;8.18;7.30;;;14.80;73.30;;;;;;5034011;27;95703;-41
2022/06/19 00:13:56;;;;;;;8.18;7.38;;;14.80;73.20;;;;;;5033922;27;96370;-40
2022/06/19 00:16:27;;;;;;;7.70;7.00;;;14.80;73.30;;;;;;5029472;27;95801;-41
2022/06/19 00:19:00;;;;;;;8.30;7.50;;;14.90;73.40;;;;;;5033806;27;96724;-41
2022/06/19 00:21:31;;;;;;;9.98;7.40;;;14.80;73.30;;;;;;5011873;27;98890;-43
2022/06/19 00:24:03;;;;;;;9.13;7.82;;;14.90;73.30;;;;;;5035072;27;96336;-41
2022/06/19 00:26:34;;;;;;;8.82;7.13;;;14.90;73.70;;;;;;5030227;27;95787;-43
2022/06/19 00:29:06;;;;;;;10.85;7.38;;;14.90;73.60;;;;;;5034388;27;96958;-43
2022/06/19 00:31:38;;;;;;;8.70;7.53;;;14.90;73.40;;;;;;5026075;27;96458;-42
2022/06/19 00:34:10;;;;;;;8.60;7.25;;;14.90;73.30;;;;;;5014816;27;96188;-42
2022/06/19 00:36:42;;;;;;;8.98;7.80;;;14.90;73.20;;;;;;5035465;27;96318;-42
2022/06/19 00:39:14;;;;;;;10.38;8.73;;;14.90;73.10;;;;;;5032939;27;96918;-43
2022/06/19 00:41:45;;;;;;;9.73;7.78;;;14.90;73.10;;;;;;5034019;27;95925;-43
2022/06/19 00:44:17;;;;;;;;;;;14.90;72.90;;;;;;5035060;27;95805;-42
2022/06/19 00:47:21;;;;;;;10.38;8.23;;;15.00;72.90;;;;;;5035609;27;97564;-42
2022/06/19 00:49:57;;;;;;;7.50;6.55;;;15.00;72.80;;;;;;5038454;27;96533;-42
2022/06/19 00:52:40;;;;;;;8.57;7.68;;;15.00;72.70;;;;;;5041142;27;96243;-43
2022/06/19 00:55:18;;;;;;;8.57;7.35;;;15.00;72.70;;;;;;5038155;27;96036;-42
2022/06/19 00:57:57;;;;;;;9.50;6.97;;;15.00;72.60;;;;;;5028757;27;95611;-43
2022/06/19 01:00:33;;;;;;;9.25;7.22;;;15.00;72.40;;;;;;5018144;27;96363;-43
2022/06/19 01:03:19;;;;;;;9.05;7.32;;;15.10;72.50;;;;;;5030696;27;95849;-42
2022/06/19 01:05:55;;;;;;;7.85;6.68;;;15.10;72.50;;;;;;5037610;27;96054;-42
2022/06/19 01:08:26;;;;;;;7.95;6.30;;;15.10;72.50;;;;;;5039149;27;95364;-43
2022/06/19 01:10:59;;;;;;;8.25;6.80;;;15.10;72.50;;;;;;5039790;27;96055;-43
2022/06/19 01:13:30;;;;;;;;;;;15.10;72.50;;;;;;5031391;27;95735;-43
2022/06/19 01:16:03;;;;;;;6.97;6.22;;;15.10;72.50;;;;;;5028335;27;96584;-43
2022/06/19 01:18:35;;;;;;;8.10;6.28;;;15.10;72.50;;;;;;5037116;27;95451;-43
2022/06/19 01:21:24;;;;;;;6.78;5.90;;;15.10;72.40;;;;;;5036533;27;95965;-42
2022/06/19 01:24:01;;;;;;;8.15;6.32;;;15.10;72.40;;;;;;5038059;27;95796;-43
2022/06/19 01:26:38;;;;;;;7.90;6.10;;;15.20;72.40;;;;;;5038060;27;96364;-43
2022/06/19 01:29:15;;;;;;;7.82;6.18;;;15.20;72.30;;;;;;5037008;27;95742;-43
2022/06/19 01:31:55;;;;;;;6.93;6.22;;;15.20;72.30;;;;;;5031007;27;98541;-43
2022/06/19 01:34:39;;;;;;;6.90;5.47;;;15.20;72.20;;;;;;5036395;27;96054;-42
2022/06/19 01:37:24;;;;;;;6.65;5.70;;;15.20;72.30;;;;;;5043261;27;95950;-45
2022/06/19 01:40:11;;;;;;;6.00;5.40;;;15.20;72.30;;;;;;5043294;27;95972;-42
2022/06/19 01:42:43;;;;;;;5.82;4.93;;;15.20;72.20;;;;;;5042431;27;96025;-41
2022/06/19 01:45:16;;;;;;;8.02;5.65;;;15.30;72.20;;;;;;5039315;27;95923;-43
2022/06/19 01:47:47;;;;;;;6.07;5.43;;;15.30;72.10;;;;;;5040761;27;95989;-41
2022/06/19 01:50:28;;;;;;;5.90;5.25;;;15.40;72.10;;;;;;5037295;27;96736;-43
2022/06/19 01:53:08;;;;;;;5.00;4.50;;;15.40;72.10;;;;;;5041232;27;96265;-41
2022/06/19 01:55:41;;;;;;;5.38;4.88;;;15.50;72.00;;;;;;5024044;27;96139;-43
2022/06/19 01:58:13;;;;;;;5.65;5.05;;;15.50;71.90;;;;;;5040840;27;96112;-44
2022/06/19 02:00:48;;;;;;;6.70;4.97;;;15.60;72.00;;;;;;5033331;27;96015;-43
2022/06/19 02:03:36;;;;;;;6.10;5.43;;;15.60;72.00;;;;;;5040354;27;96569;-41
2022/06/19 02:06:12;;;;;;;5.38;4.85;;;15.60;72.00;;;;;;5036760;27;95916;-42
2022/06/19 02:08:43;;;;;;;5.13;4.63;;;15.60;72.00;;;;;;5040618;27;96411;-43
2022/06/19 02:11:16;;;;;;;4.90;4.13;;;15.60;72.00;;;;;;5043424;27;96062;-42
2022/06/19 02:13:49;;;;;;;4.93;4.43;;;15.70;72.00;;;;;;5038706;27;95948;-40
2022/06/19 02:16:22;;;;;;;5.43;4.68;;;15.70;72.00;;;;;;5022096;27;96979;-43
2022/06/19 02:18:55;;;;;;;4.70;4.15;;;15.80;72.10;;;;;;5035592;27;95747;-42
2022/06/19 02:21:48;;;;;;;5.53;4.80;;;15.70;72.00;;;;;;5039222;27;95770;-43
2022/06/19 02:24:24;;;;;;;4.68;4.13;;;15.80;72.00;;;;;;5037196;27;96964;-43
2022/06/19 02:26:57;;;;;;;5.15;4.43;;;15.80;72.00;;;;;;5040454;27;95879;-43
2022/06/19 02:29:29;;;;;;;5.78;4.95;;;15.80;71.90;;;;;;5040718;27;95977;-43
2022/06/19 02:32:02;;;;;;;4.65;4.13;;;15.90;71.90;;;;;;5031093;27;99933;-40
2022/06/19 02:37:37;;;;;;;4.53;3.95;;;15.90;71.90;;;;;;5039932;27;96032;-42
2022/06/19 02:40:44;;;;;;;6.00;4.90;;;16.00;71.80;;;;;;5035698;27;95905;-42
2022/06/19 02:43:25;;;;;;;4.72;3.88;;;16.00;71.80;;;;;;5041217;27;95696;-43
2022/06/19 02:45:57;;;;;;;5.05;3.95;;;16.10;71.80;;;;;;5017310;27;96947;-43
2022/06/19 02:48:31;;;;;;;3.97;3.63;;;16.10;71.80;;;;;;5041177;27;96012;-42
2022/06/19 02:51:07;;;;;;;4.30;3.80;;;16.10;71.70;;;;;;5039193;27;96685;-43
2022/06/19 02:53:39;;;;;;;4.88;4.30;;;16.20;71.70;;;;;;5041407;27;95778;-43
2022/06/19 02:56:12;;;;;;;4.13;3.72;;;16.20;71.60;;;;;;5032303;27;96618;-43
2022/06/19 02:58:42;;;;;;;4.10;3.60;;;16.20;71.60;;;;;;5036197;27;96162;-41
2022/06/19 03:01:16;;;;;;;3.75;3.38;;;16.30;71.60;;;;;;5035988;27;96033;-41
2022/06/19 03:03:49;;;;;;;4.05;3.65;;;16.30;71.50;;;;;;5047383;27;95923;-41
2022/06/19 03:06:20;;;;;;;4.60;4.13;;;16.30;71.40;;;;;;5046498;27;96016;-41
2022/06/19 03:08:51;;;;;;;4.65;4.07;;;16.30;71.50;;;;;;5040590;27;96998;-41
2022/06/19 03:11:26;;;;;;;4.35;3.95;;;16.40;71.50;;;;;;5044309;27;95723;-41
2022/06/19 03:13:57;;;;;;;4.80;4.22;;;16.40;71.50;;;;;;5038364;27;95421;-41
2022/06/19 03:16:27;;;;;;;4.00;3.67;;;16.40;71.40;;;;;;5031400;27;96520;-41
2022/06/19 03:18:59;;;;;;;4.38;3.72;;;16.50;71.50;;;;;;5035717;27;95726;-42
2022/06/19 03:21:29;;;;;;;4.20;3.85;;;16.50;71.40;;;;;;5030279;27;95779;-42
2022/06/19 03:24:00;;;;;;;4.15;3.72;;;16.50;71.50;;;;;;5036686;27;95914;-40
2022/06/19 03:26:32;;;;;;;4.38;3.85;;;16.50;71.40;;;;;;5035929;27;97089;-40
2022/06/19 03:29:03;;;;;;;4.47;4.07;;;16.60;71.40;;;;;;5029972;27;96002;-41
2022/06/19 03:31:38;;;;;;;5.10;4.07;;;16.60;71.40;;;;;;5030193;27;95491;-46
2022/06/19 03:34:09;;;;;;;3.30;3.00;;;16.60;71.40;;;;;;5047652;27;95844;-40
2022/06/19 03:36:41;;;;;;;4.00;3.60;;;16.60;71.30;;;;;;5043217;27;96259;-42
2022/06/19 03:39:14;;;;;;;4.30;3.60;;;16.70;71.30;;;;;;5043269;27;95901;-41
2022/06/19 03:41:46;;;;;;;4.82;3.95;;;16.70;71.30;;;;;;5035126;27;95954;-41
2022/06/19 03:44:20;;;;;;;3.28;2.97;;;16.70;71.20;;;;;;5036837;27;96971;-42
2022/06/19 03:46:55;;;;;;;3.20;2.97;;;16.80;71.20;;;;;;5024664;27;96049;-41
2022/06/19 03:49:27;;;;;;;3.47;3.17;;;16.80;71.20;;;;;;5034406;27;95826;-41
2022/06/19 03:52:01;;;;;;;3.50;3.20;;;16.80;71.20;;;;;;5034493;27;95938;-41
2022/06/19 03:54:37;;;;;;;4.18;3.70;;;16.90;71.10;;;;;;5036455;27;95781;-41
2022/06/19 03:57:11;;;;;;;3.78;3.42;;;16.90;71.10;;;;;;5042587;27;96064;-39
2022/06/19 03:59:42;;;;;;;3.60;3.00;;;16.90;71.10;;;;;;5035246;27;95898;-41
2022/06/19 04:02:14;;;;;;;3.42;3.13;;;17.00;70.50;;;;;;5027722;27;95383;-41
2022/06/19 04:04:46;;;;;;;4.22;3.63;;;17.00;70.50;;;;;;5035030;27;95420;-40
2022/06/19 04:07:17;;;;;;;2.75;2.55;;;17.00;71.00;;;;;;5036284;27;96080;-41
2022/06/19 04:09:49;;;;;;;3.28;3.03;;;17.10;71.00;;;;;;5032998;27;95822;-42
2022/06/19 04:12:21;;;;;;;3.25;2.80;;;17.10;70.90;;;;;;5037314;27;97148;-42
2022/06/19 04:14:52;;;;;;;4.57;3.80;;;17.10;70.90;;;;;;5032334;27;95887;-42
2022/06/19 04:17:23;;;;;;;4.25;3.17;;;17.10;70.50;;;;;;5035221;27;96097;-42
2022/06/19 04:19:55;;;;;;;;;;;17.10;70.30;;;;;;5028871;27;95579;-39
2022/06/19 04:22:27;;;;;;;3.35;3.05;;;17.10;70.90;;;;;;5042482;27;96193;-41
2022/06/19 04:24:59;;;;;;;4.50;3.50;;;17.10;70.90;;;;;;5026171;27;95784;-41
2022/06/19 04:27:32;;;;;;;3.63;3.30;;;17.10;70.80;;;;;;5034884;27;96040;-41
2022/06/19 04:30:03;;;;;;;3.95;3.28;;;17.20;70.80;;;;;;5036782;27;96691;-41
2022/06/19 04:32:35;;;;;;;3.95;3.53;;;17.20;70.70;;;;;;5032575;27;95816;-42
2022/06/19 04:35:08;;;;;;;5.03;3.17;;;17.20;70.70;;;;;;5013425;27;97376;-42
2022/06/19 04:37:43;;;;;;;4.78;2.95;;;17.20;70.70;;;;;;5028359;27;96967;-41
2022/06/19 04:40:14;;;;;;;4.55;3.30;;;17.20;70.70;;;;;;5031903;27;96003;-41
2022/06/19 04:42:45;;;;;;;4.22;2.97;;;17.20;70.70;;;;;;5039588;27;95673;-43
2022/06/19 04:45:18;;;;;;;3.47;2.88;;;17.20;70.60;;;;;;5032487;27;95922;-39
2022/06/19 04:47:50;;;;;;;3.63;3.03;;;17.20;70.60;;;;;;5036921;27;96561;-42
2022/06/19 04:50:21;;;;;;;3.97;3.58;;;17.20;70.60;;;;;;5025449;27;95849;-41
2022/06/19 04:52:53;;;;;;;4.25;3.17;;;17.20;70.60;;;;;;5033276;27;96034;-41
2022/06/19 04:55:26;;;;;;;4.15;3.35;;;17.20;70.60;;;;;;5029348;27;97023;-43
2022/06/19 04:58:02;;;;;;;3.35;2.88;;;17.20;70.60;;;;;;5035245;27;95868;-41
2022/06/19 05:00:33;;;;;;;3.42;2.88;;;17.20;70.60;;;;;;5030442;27;95785;-41
2022/06/19 05:03:05;;;;;;;5.72;3.58;;;17.30;70.60;;;;;;5035280;27;97013;-40
2022/06/19 05:05:36;;;;;;;;;;;17.30;70.60;;;;;;5039814;27;95408;-40
2022/06/19 05:08:07;;;;;;;4.70;3.38;;;17.20;70.60;;;;;;5036629;27;96194;-41
2022/06/19 05:10:41;;;;;;;;;;;17.30;70.70;;;;;;5039006;27;95944;-42
2022/06/19 05:13:21;;;;;;;3.50;2.92;;;17.30;70.70;;;;;;5038390;27;95590;-42
2022/06/19 05:16:01;;;;;;;3.22;2.88;;;17.30;70.70;;;;;;5036814;27;95760;-41
2022/06/19 05:18:31;;;;;;;4.45;3.10;;;17.30;70.70;;;;;;5041735;27;97094;-42
2022/06/19 05:21:05;;;;;;;4.15;3.08;;;17.30;70.90;;;;;;5041559;27;95658;-41
2022/06/19 05:23:39;;;;;;;3.38;2.92;;;17.30;70.90;;;;;;5041081;27;95614;-41
2022/06/19 05:26:16;;;;;;;5.00;2.95;;;17.30;70.90;;;;;;5032841;27;95715;-40
2022/06/19 05:28:48;;;;;;;3.95;2.88;;;17.30;70.40;;;;;;5037052;27;95924;-41
2022/06/19 05:31:21;;;;;;;4.22;3.50;;;17.30;70.90;;;;;;5017558;27;96704;-44
2022/06/19 05:33:53;;;;;;;5.57;4.13;;;17.30;70.80;;;;;;5020514;27;95889;-41
2022/06/19 05:36:29;;;;;;;4.13;3.45;;;17.30;70.80;;;;;;5039356;27;96648;-41
2022/06/19 05:39:08;;;;;;;3.45;3.03;;;17.30;70.70;;;;;;5036103;27;95868;-41
2022/06/19 05:41:40;;;;;;;4.32;3.30;;;17.40;70.80;;;;;;5039168;27;95912;-42
2022/06/19 05:44:14;;;;;;;5.45;3.63;;;17.40;70.80;;;;;;5034393;27;95875;-42
2022/06/19 05:46:49;;;;;;;3.72;3.03;;;17.40;70.80;;;;;;5021470;27;98408;-41
2022/06/19 05:49:22;;;;;;;4.10;3.15;;;17.40;70.90;;;;;;5041066;27;96329;-41
2022/06/19 05:51:54;;;;;;;4.40;3.25;;;17.40;70.90;;;;;;5047302;27;95854;-41
2022/06/19 05:54:26;;;;;;;4.43;3.13;;;17.30;70.90;;;;;;5046994;27;95775;-42
2022/06/19 05:56:58;;;;;;;4.50;3.25;;;17.30;71.00;;;;;;5048348;27;95751;-42
2022/06/19 05:59:30;;;;;;;6.75;3.70;;;17.40;71.00;;;;;;5033758;27;95954;-42
2022/06/19 06:02:01;;;;;;;4.35;3.20;;;17.30;71.00;;;;;;5031039;27;96551;-44
2022/06/19 06:04:34;;;;;;;5.00;3.08;;;17.40;71.10;;;;;;5043640;27;95679;-42
2022/06/19 06:07:08;;;;;;;4.28;3.55;;;17.30;71.10;;;;;;5039647;27;95920;-41
2022/06/19 06:09:40;;;;;;;3.80;3.05;;;17.30;71.10;;;;;;5037270;27;95881;-39
2022/06/19 06:12:12;;;;;;;5.07;3.53;;;17.30;71.30;;;;;;5041412;27;95758;-41
2022/06/19 06:14:43;;;;;;;6.20;3.58;;;17.30;72.00;;;;;;5035071;27;95652;-41
2022/06/19 06:17:15;;;;;;;4.72;3.42;;;17.20;71.40;;;;;;5032819;27;97551;-40
2022/06/19 06:19:47;;;;;;;5.90;3.60;;;17.20;71.50;;;;;;5043809;27;97091;-43
2022/06/19 06:22:19;;;;;;;4.30;3.30;;;17.20;71.60;;;;;;5030409;27;95769;-43
2022/06/19 06:24:52;;;;;;;3.72;3.10;;;17.20;71.70;;;;;;5026096;27;95894;-41
2022/06/19 06:27:23;;;;;;;5.50;3.35;;;17.20;71.80;;;;;;5030416;27;95623;-41
2022/06/19 06:29:55;;;;;;;3.38;3.08;;;17.20;71.90;;;;;;5040002;27;96154;-41
2022/06/19 06:32:27;;;;;;;5.30;3.80;;;17.10;71.80;;;;;;5034845;27;96225;-39
2022/06/19 06:34:58;;;;;;;4.95;3.72;;;17.10;72.00;;;;;;5035634;27;96679;-43
2022/06/19 06:37:29;;;;;;;;;;;17.10;72.10;;;;;;5035336;27;95802;-40
2022/06/19 06:40:03;;;;;;;3.40;2.83;;;17.10;72.20;;;;;;5039698;27;96642;-41
2022/06/19 06:42:34;;;;;;;4.00;3.20;;;17.00;72.20;;;;;;5041386;27;95768;-41
2022/06/19 06:45:08;;;;;;;3.80;3.08;;;17.00;72.30;;;;;;5036776;27;95718;-41
2022/06/19 06:47:40;;;;;;;4.10;3.40;;;17.00;72.40;;;;;;5043557;27;95653;-41
2022/06/19 06:50:12;;;;;;;3.42;3.00;;;17.00;72.50;;;;;;5041132;27;96624;-41
2022/06/19 06:52:44;;;;;;;3.40;2.85;;;17.00;72.60;;;;;;5037139;27;95958;-40
2022/06/19 06:55:20;;;;;;;4.35;3.45;;;16.90;72.60;;;;;;5037722;27;97424;-41
2022/06/19 06:57:51;;;;;;;3.72;3.00;;;16.90;72.60;;;;;;5035247;27;95847;-42
2022/06/19 07:00:26;;;;;;;5.45;3.08;;;16.90;72.60;;;;;;5028035;27;96128;-40
2022/06/19 07:03:01;;;;;;;5.10;3.78;;;16.90;72.60;;;;;;5044283;27;102735;-41
2022/06/19 07:05:33;;;;;;;5.45;2.97;;;16.90;72.70;;;;;;5033255;27;95882;-41
2022/06/19 07:08:05;;;;;;;3.83;3.05;;;16.90;72.90;;;;;;5030321;27;95819;-40
2022/06/19 07:10:36;;;;;;;4.22;3.17;;;16.80;72.90;;;;;;5039242;27;95947;-39
2022/06/19 07:13:10;;;;;;;4.00;3.40;;;16.80;72.90;;;;;;5038403;27;95939;-41
2022/06/19 07:15:40;;;;;;;5.18;3.72;;;16.70;73.00;;;;;;5033928;27;96499;-41
2022/06/19 07:18:18;;;;;;;3.65;3.00;;;16.80;73.10;;;;;;5033248;27;95771;-42
2022/06/19 07:20:50;;;;;;;3.55;3.25;;;16.80;72.90;;;;;;5034337;27;96425;-41
2022/06/19 07:23:21;;;;;;;3.58;2.85;;;16.80;72.70;;;;;;5030440;27;96616;-40
2022/06/19 07:25:53;;;;;;;3.90;3.25;;;16.80;72.70;;;;;;5034236;27;95915;-40
2022/06/19 07:28:27;;;;;;;3.28;2.78;;;16.80;72.60;;;;;;5020884;27;98149;-43
2022/06/19 07:30:59;;;;;;;5.68;3.45;;;16.80;72.60;;;;;;5030104;27;97167;-43
2022/06/19 07:33:33;;;;;;;2.72;2.47;;;16.80;72.70;;;;;;5038866;27;96025;-43
2022/06/19 07:36:16;;;;;;;2.63;2.25;;;16.70;72.70;;;;;;5040820;27;96518;-43
2022/06/19 07:38:47;;;;;;;3.97;3.45;;;16.80;72.80;;;;;;5038934;27;95916;-43
2022/06/19 07:41:22;;;;;;;3.65;3.33;;;16.70;72.80;;;;;;5034974;27;96511;-43
2022/06/19 07:43:56;;;;;;;3.30;2.70;;;16.80;72.90;;;;;;5038753;27;96478;-44
2022/06/19 07:46:28;;;;;;;3.63;2.80;;;16.80;72.80;;;;;;5033568;27;95782;-43
2022/06/19 07:51:53;;;;;;;3.72;2.85;;;16.80;72.60;;;;;;5039499;27;95997;-44
2022/06/19 07:54:24;;;;;;;;;;;16.80;72.40;;;;;;5040289;27;97261;-44
2022/06/19 07:56:57;;;;;;;3.17;2.45;;;16.90;72.40;;;;;;5036989;27;95976;-46
2022/06/19 07:59:30;;;;;;;2.83;2.60;;;16.80;72.40;;;;;;5039899;27;95785;-44
2022/06/19 08:02:04;;;;;;;2.67;2.30;;;16.80;72.30;;;;;;5012805;27;98734;-43
2022/06/19 08:04:39;;;;;;;2.60;2.35;;;16.90;72.20;;;;;;5040552;27;96062;-44
2022/06/19 08:07:15;;;;;;;3.25;2.72;;;16.90;72.10;;;;;;5040427;27;95734;-44
2022/06/19 08:09:49;;;;;;;3.20;2.72;;;16.90;72.10;;;;;;5040118;27;96427;-43
2022/06/19 08:12:20;;;;;;;2.50;2.25;;;16.90;72.00;;;;;;5038205;27;95886;-44
2022/06/19 08:14:50;;;;;;;;;;;16.90;71.90;;;;;;5035242;27;95494;-43
2022/06/19 08:17:22;;;;;;;2.80;2.60;;;16.90;71.90;;;;;;5017291;27;97247;-43
2022/06/19 08:19:55;;;;;;;2.58;2.15;;;16.90;71.90;;;;;;5041398;27;95336;-43
2022/06/19 08:22:26;;;;;;;2.95;2.60;;;17.00;71.80;;;;;;5040707;27;95898;-44
2022/06/19 08:24:59;;;;;;;4.43;3.22;;;17.00;71.40;;;;;;5021625;27;96504;-44
2022/06/19 08:27:31;;;;;;;3.85;2.90;;;17.00;71.10;;;;;;5037520;27;95873;-43
2022/06/19 08:30:09;;;;;;;3.28;2.90;;;17.00;71.70;;;;;;5011854;27;95840;-45
2022/06/19 08:32:40;;;;;;;2.30;2.10;;;17.00;71.70;;;;;;5017339;27;103692;-42
2022/06/19 08:35:11;;;;;;;3.43;2.87;;;17.00;71.60;;;;;;5019358;27;97567;-43
2022/06/19 08:37:45;;;;;;;3.03;2.30;;;17.00;71.60;;;;;;5038557;27;95709;-42
2022/06/19 08:40:41;;;;;;;2.67;2.35;;;17.00;71.50;;;;;;5040428;27;95912;-42
2022/06/19 08:43:38;;;;;;;2.53;2.33;;;17.00;71.50;;;;;;5040270;27;96018;-43
2022/06/19 08:46:34;;;;;;;3.58;3.08;;;17.00;71.50;;;;;;5032554;27;95824;-45
2022/06/19 08:49:14;;;;;;;2.78;2.58;;;17.00;70.90;;;;;;5036991;27;95946;-44
2022/06/19 08:52:01;;;;;;;2.30;2.10;;;17.00;71.30;;;;;;5038447;27;95770;-44
2022/06/19 08:55:10;;;;;;;2.70;2.47;;;17.00;71.20;;;;;;5041094;27;96427;-46
2022/06/19 08:58:03;;;;;;;3.90;2.90;;;17.00;71.20;;;;;;5039253;27;95385;-45
2022/06/19 09:00:51;;;;;;;3.75;2.88;;;17.00;71.10;;;;;;5016135;27;97341;-45
2022/06/19 09:05:36;;;;;;;3.47;3.10;;;17.00;71.20;;;;;;5038084;27;96566;-46
2022/06/19 09:06:46;;;;;;;2.80;2.50;;;17.00;71.00;;;;;;5037837;27;96232;-43
2022/06/19 09:09:30;;;;;;;3.80;3.30;;;17.00;71.00;;;;;;5041145;27;96257;-43
2022/06/19 09:12:14;;;;;;;3.40;2.97;;;17.00;70.90;;;;;;5006716;27;96412;-44
2022/06/19 09:14:57;;;;;;;3.53;2.92;;;17.00;70.90;;;;;;5040795;27;95508;-42
2022/06/19 09:17:42;;;;;;;3.35;2.90;;;17.00;70.80;;;;;;5035954;27;95909;-40
2022/06/19 09:20:31;;;;;;;3.33;3.03;;;17.00;70.80;;;;;;5036957;27;95884;-43
2022/06/19 09:23:44;;;;;;;3.50;2.88;;;16.90;70.80;;;;;;5039504;27;96499;-43
2022/06/19 09:26:21;;;;;;;5.35;3.83;;;17.00;70.90;;;;;;4982357;27;95791;-43
2022/06/19 09:29:11;;;;;;;4.13;3.65;;;17.00;71.10;;;;;;5034188;27;97870;-43
2022/06/19 09:32:04;;;;;;;5.22;4.70;;;17.00;71.20;;;;;;5033236;27;96317;-43
2022/06/19 09:34:52;;;;;;;5.70;4.35;;;17.00;71.20;;;;;;4992286;27;96102;-42
2022/06/19 09:37:34;;;;;;;6.70;5.38;;;17.00;71.30;;;;;;5034519;27;96516;-43
2022/06/19 09:40:25;;;;;;;6.55;4.70;;;17.00;71.30;;;;;;5038341;27;96392;-43
2022/06/19 09:43:23;;;;;;;8.27;4.45;;;17.00;71.30;;;;;;5038473;27;96072;-43
2022/06/19 09:46:07;;;;;;;5.57;4.78;;;17.00;71.30;;;;;;5037171;27;95810;-43
2022/06/19 09:48:57;;;;;;;5.60;5.00;;;17.00;71.20;;;;;;5040747;27;96549;-45
2022/06/19 09:51:58;;;;;;;6.88;5.65;;;17.00;71.30;;;;;;5042399;27;95921;-45
2022/06/19 09:54:42;;;;;;;7.90;5.90;;;17.00;71.20;;;;;;5035408;27;96064;-46
2022/06/19 09:57:29;;;;;;;7.30;5.57;;;17.10;71.20;;;;;;5039786;27;95666;-42
2022/06/19 10:00:21;;;;;;;8.85;5.82;;;17.10;71.10;;;;;;5039463;27;95612;-43
2022/06/19 10:03:35;;;;;;;6.68;5.47;;;17.20;70.90;;;;;;5038239;27;102812;-44
2022/06/19 10:06:20;;;;;;;8.70;5.95;;;17.20;70.70;;;;;;5037137;27;96800;-45
2022/06/19 10:09:02;;;;;;;7.15;6.32;;;17.20;70.70;;;;;;5038396;27;97183;-43
2022/06/19 10:11:38;;;;;;;5.90;5.28;;;17.20;70.50;;;;;;5037899;27;98316;-43
2022/06/19 10:14:32;;;;;;;7.65;5.43;;;17.20;70.60;;;;;;5040515;27;95873;-43
2022/06/19 10:17:25;;;;;;;9.32;6.38;;;17.20;70.60;;;;;;5032173;27;96287;-43
2022/06/19 10:20:16;;;;;;;8.35;6.30;;;17.20;70.60;;;;;;5014742;27;96605;-43
2022/06/19 10:23:08;;;;;;;8.17;6.13;;;17.20;70.60;;;;;;5040964;27;95921;-42
2022/06/19 10:26:08;;;;;;;8.48;6.55;;;17.20;70.60;;;;;;5036622;27;96439;-42
2022/06/19 10:29:01;;;;;;;7.72;6.50;;;17.10;70.50;;;;;;5030941;27;95729;-41
2022/06/19 10:31:48;;;;;;;10.02;7.85;;;17.00;70.60;;;;;;5040690;27;95797;-42
2022/06/19 10:34:42;;;;;;;12.50;7.78;;;16.90;70.80;;;;;;5042053;27;95807;-42
2022/06/19 10:37:38;;;;;;;8.63;7.45;;;16.80;70.90;;;;;;5034182;27;96483;-42
2022/06/19 10:40:27;;;;;;;9.43;7.28;;;16.80;71.00;;;;;;5018881;27;95896;-42
2022/06/19 10:43:09;;;;;;;10.75;8.30;;;16.70;71.10;;;;;;5031824;27;95797;-42
2022/06/19 10:46:08;;;;;;;11.45;8.82;;;16.70;71.10;;;;;;5029691;27;96449;-42
2022/06/19 10:49:16;;;;;;;12.07;9.50;;;16.60;71.20;;;;;;5042022;27;95832;-41
2022/06/19 10:52:15;;;;;;;12.20;9.35;;;16.60;71.30;;;;;;5035784;27;95751;-42
2022/06/19 10:54:52;;;;;;;13.07;9.35;;;16.50;71.30;;;;;;4992655;27;96128;-42
2022/06/19 10:57:50;;;;;;;12.50;9.30;;;16.50;71.40;;;;;;5034839;27;95634;-42
2022/06/19 11:00:22;;;;;;;10.20;8.63;;;16.50;72.20;;;;;;5025914;27;96544;-42
2022/06/19 11:06:12;;;;;;;12.10;9.57;;;16.40;71.50;;;;;;5036016;27;95664;-42
2022/06/19 11:08:54;;;;;;;12.73;10.00;;;16.40;71.50;;;;;;5035565;27;95289;-41
2022/06/19 11:11:26;;;;;;;12.73;10.88;;;16.30;71.40;;;;;;5034794;27;96021;-42
2022/06/19 11:14:09;;;;;;;14.73;10.48;;;16.30;71.50;;;;;;5037389;27;95308;-42
2022/06/19 11:16:58;;;;;;;12.27;10.77;;;16.30;71.50;;;;;;5027535;27;95770;-40
2022/06/19 11:19:46;;;;;;;14.32;10.50;;;16.20;71.60;;;;;;5028451;27;95984;-42
2022/06/19 11:22:34;;;;;;;13.50;11.00;;;16.20;71.60;;;;;;5032364;27;96000;-42
2022/06/19 11:25:33;;;;;;;14.18;11.32;;;16.20;71.70;;;;;;5042762;27;95927;-41
2022/06/19 11:28:07;;;;;;;14.05;11.20;;;16.20;71.70;;;;;;5037152;27;95780;-41
2022/06/19 11:30:39;;;;;;;13.73;9.70;;;16.10;71.70;;;;;;5037505;27;95516;-42
2022/06/19 11:33:17;;;;;;;12.35;10.45;;;16.10;71.80;;;;;;5031554;27;96380;-42
2022/06/19 11:35:55;;;;;;;12.70;10.57;;;16.00;71.60;;;;;;5034073;27;95817;-41
2022/06/19 11:38:41;;;;;;;15.02;11.90;;;16.00;71.70;;;;;;5039700;27;95743;-41
2022/06/19 11:41:30;;;;;;;13.85;11.27;;;16.00;71.80;;;;;;5032967;27;95550;-42
2022/06/19 11:44:16;;;;;;;13.52;11.13;;;15.90;71.80;;;;;;5034411;27;96535;-42
2022/06/19 11:46:56;;;;;;;14.70;12.40;;;15.90;71.90;;;;;;5037283;27;96133;-42
2022/06/19 11:49:36;;;;;;;12.43;10.45;;;15.80;71.90;;;;;;5035567;27;95897;-41
2022/06/19 11:52:20;;;;;;;14.52;11.68;;;15.90;71.90;;;;;;5029932;27;95729;-41
2022/06/19 11:54:53;;;;;;;15.45;13.00;;;15.80;71.90;;;;;;5030395;27;96688;-42
2022/06/19 11:57:26;;;;;;;15.05;12.00;;;15.80;71.50;;;;;;5036164;27;95693;-42
2022/06/19 12:00:02;;;;;;;15.93;11.82;;;15.70;71.40;;;;;;5039210;27;95646;-41
2022/06/19 12:02:40;;;;;;;16.55;11.75;;;15.70;72.00;;;;;;5032643;27;95859;-41
2022/06/19 12:05:39;;;;;;;14.27;11.43;;;15.70;72.00;;;;;;5034908;27;95924;-41
2022/06/19 12:08:24;;;;;;;14.65;11.48;;;15.70;72.00;;;;;;5013930;27;95949;-41
2022/06/19 12:11:05;;;;;;;14.35;12.35;;;15.60;72.10;;;;;;5033225;27;95644;-42
2022/06/19 12:13:40;;;;;;;16.48;12.02;;;15.60;72.00;;;;;;5040746;27;95339;-41
2022/06/19 12:16:23;;;;;;;16.48;12.50;;;15.60;72.10;;;;;;5033744;27;96091;-42
2022/06/19 12:18:55;;;;;;;15.25;12.90;;;15.50;72.00;;;;;;5032455;27;95675;-41
2022/06/19 12:21:36;;;;;;;12.63;11.30;;;15.50;72.10;;;;;;5030461;27;95790;-41
2022/06/19 12:24:18;;;;;;;14.77;12.23;;;15.50;72.00;;;;;;5028665;27;95822;-41
2022/06/19 12:26:56;;;;;;;17.70;13.38;;;15.50;72.00;;;;;;5031191;27;96101;-41
2022/06/19 12:29:39;;;;;;;18.83;13.30;;;15.40;72.00;;;;;;5033112;27;96335;-41
2022/06/19 12:32:38;;;;;;;16.73;13.25;;;15.40;72.10;;;;;;5008002;27;96153;-42
2022/06/19 12:35:27;;;;;;;16.20;13.15;;;15.40;72.20;;;;;;5023166;27;95866;-42
2022/06/19 12:38:05;;;;;;;15.82;13.40;;;15.40;72.30;;;;;;5038263;27;96553;-41
2022/06/19 12:40:45;;;;;;;19.90;13.63;;;15.30;72.30;;;;;;5027812;27;95850;-40
2022/06/19 12:43:39;;;;;;;16.70;13.33;;;15.30;72.40;;;;;;5029104;27;96304;-42
2022/06/19 12:46:55;;;;;;;18.13;13.88;;;15.20;72.30;;;;;;5033843;27;95728;-41
2022/06/19 12:49:45;;;;;;;16.38;12.95;;;15.30;72.40;;;;;;5036691;27;97684;-42
2022/06/19 12:52:36;;;;;;;16.98;13.65;;;15.20;72.40;;;;;;5028177;27;95701;-44
2022/06/19 12:55:45;;;;;;;18.20;14.50;;;15.20;72.40;;;;;;5032649;27;95708;-42
2022/06/19 12:58:43;;;;;;;17.98;14.18;;;15.20;72.30;;;;;;5026961;27;95878;-41
2022/06/19 13:01:14;;;;;;;16.48;13.85;;;15.10;72.50;;;;;;5029109;27;96261;-42
2022/06/19 13:04:05;;;;;;;;;;;15.10;72.50;;;;;;5037029;27;95937;-41
2022/06/19 13:06:50;;;;;;;16.20;13.05;;;15.10;72.50;;;;;;5033838;27;95662;-41
2022/06/19 13:09:41;;;;;;;18.98;14.00;;;15.00;72.50;;;;;;5033546;27;95649;-42
2022/06/19 13:12:36;;;;;;;15.70;13.55;;;15.00;72.50;;;;;;5041809;27;96489;-42
2022/06/19 13:15:44;;;;;;;15.23;12.70;;;15.00;72.60;;;;;;5004526;27;97359;-42
2022/06/19 13:18:39;;;;;;;14.20;12.68;;;15.00;72.60;;;;;;5029397;27;96403;-41
2022/06/19 13:21:21;;;;;;;18.27;15.10;;;14.90;72.60;;;;;;5032602;27;95617;-42
2022/06/19 13:24:15;;;;;;;16.80;14.30;;;14.90;72.60;;;;;;5012445;27;96499;-43
2022/06/19 13:27:29;;;;;;;18.25;13.73;;;14.90;72.70;;;;;;5036041;27;96353;-40
2022/06/19 13:30:02;;;;;;;17.67;13.30;;;14.90;72.60;;;;;;5036507;27;95636;-42
2022/06/19 13:33:16;;;;;;;18.58;15.10;;;14.90;72.70;;;;;;5029436;27;95778;-41
2022/06/19 13:35:51;;;;;;;19.90;14.48;;;14.80;72.70;;;;;;5034805;27;96723;-41
2022/06/19 13:38:46;;;;;;;19.75;15.20;;;14.80;72.70;;;;;;5037814;27;95921;-42
2022/06/19 13:41:20;;;;;;;20.48;15.65;;;14.80;72.70;;;;;;5036761;27;96074;-42
2022/06/19 13:43:55;;;;;;;18.48;15.27;;;14.80;72.80;;;;;;5035639;27;95802;-41
2022/06/19 13:46:44;;;;;;;19.63;15.52;;;14.80;72.80;;;;;;5034057;27;96530;-42
2022/06/19 13:49:37;;;;;;;19.50;16.05;;;14.70;72.70;;;;;;5029164;27;95879;-41
2022/06/19 13:52:33;;;;;;;21.20;15.85;;;14.70;72.80;;;;;;5045768;27;95796;-42
2022/06/19 13:55:27;;;;;;;21.05;15.75;;;14.70;72.80;;;;;;5038315;27;96384;-40